sensor_id;sensor_type;location;lat;lon;timestamp;temperature;humidity
41220;DHT22;26951;47.338;9.196;2022-07-10T00:01:46;15.50;57.60
41220;DHT22;26951;47.338;9.196;2022-07-10T00:04:30;15.50;58.40
41220;DHT22;26951;47.338;9.196;2022-07-10T00:07:14;15.50;58.70
41220;DHT22;26951;47.338;9.196;2022-07-10T00:09:58;15.40;58.40
41220;DHT22;26951;47.338;9.196;2022-07-10T00:12:43;15.40;58.00
41220;DHT22;26951;47.338;9.196;2022-07-10T00:15:27;15.40;58.00
41220;DHT22;26951;47.338;9.196;2022-07-10T00:18:11;15.40;58.50
41220;DHT22;26951;47.338;9.196;2022-07-10T00:20:55;15.40;58.90
41220;DHT22;26951;47.338;9.196;2022-07-10T00:23:39;15.40;58.20
41220;DHT22;26951;47.338;9.196;2022-07-10T00:26:23;15.40;58.90
41220;DHT22;26951;47.338;9.196;2022-07-10T00:29:07;15.40;58.90
41220;DHT22;26951;47.338;9.196;2022-07-10T00:31:52;15.40;57.30
41220;DHT22;26951;47.338;9.196;2022-07-10T00:34:37;15.40;55.70
41220;DHT22;26951;47.338;9.196;2022-07-10T00:37:22;15.50;56.60
41220;DHT22;26951;47.338;9.196;2022-07-10T00:40:06;15.50;56.70
41220;DHT22;26951;47.338;9.196;2022-07-10T00:42:51;15.50;57.80
41220;DHT22;26951;47.338;9.196;2022-07-10T00:45:35;15.50;57.10
41220;DHT22;26951;47.338;9.196;2022-07-10T00:48:19;15.50;56.80
41220;DHT22;26951;47.338;9.196;2022-07-10T00:51:03;15.50;56.90
41220;DHT22;26951;47.338;9.196;2022-07-10T00:53:48;15.50;56.90
41220;DHT22;26951;47.338;9.196;2022-07-10T00:56:33;15.50;57.70
41220;DHT22;26951;47.338;9.196;2022-07-10T00:59:18;15.40;57.80
41220;DHT22;26951;47.338;9.196;2022-07-10T01:02:04;15.40;57.60
41220;DHT22;26951;47.338;9.196;2022-07-10T01:04:48;15.40;57.30
41220;DHT22;26951;47.338;9.196;2022-07-10T01:07:32;15.40;57.60
41220;DHT22;26951;47.338;9.196;2022-07-10T01:10:16;15.40;57.10
41220;DHT22;26951;47.338;9.196;2022-07-10T01:13:01;15.40;56.70
41220;DHT22;26951;47.338;9.196;2022-07-10T01:15:46;15.30;56.90
41220;DHT22;26951;47.338;9.196;2022-07-10T01:18:30;15.30;57.10
41220;DHT22;26951;47.338;9.196;2022-07-10T01:21:35;15.20;56.60
41220;DHT22;26951;47.338;9.196;2022-07-10T01:24:19;15.20;56.80
41220;DHT22;26951;47.338;9.196;2022-07-10T01:27:04;15.10;56.90
41220;DHT22;26951;47.338;9.196;2022-07-10T01:29:48;15.00;56.80
41220;DHT22;26951;47.338;9.196;2022-07-10T01:32:40;14.90;56.40
41220;DHT22;26951;47.338;9.196;2022-07-10T01:35:25;14.90;56.70
41220;DHT22;26951;47.338;9.196;2022-07-10T01:38:09;14.80;57.20
41220;DHT22;26951;47.338;9.196;2022-07-10T01:40:53;14.80;57.30
41220;DHT22;26951;47.338;9.196;2022-07-10T01:43:39;14.70;57.30
41220;DHT22;26951;47.338;9.196;2022-07-10T01:46:26;14.70;57.80
41220;DHT22;26951;47.338;9.196;2022-07-10T01:49:10;14.70;58.60
41220;DHT22;26951;47.338;9.196;2022-07-10T01:51:55;14.70;58.50
41220;DHT22;26951;47.338;9.196;2022-07-10T01:54:39;14.70;58.80
41220;DHT22;26951;47.338;9.196;2022-07-10T01:57:23;14.70;59.90
41220;DHT22;26951;47.338;9.196;2022-07-10T02:00:08;14.70;59.30
41220;DHT22;26951;47.338;9.196;2022-07-10T02:02:53;14.60;59.50
41220;DHT22;26951;47.338;9.196;2022-07-10T02:05:57;14.60;60.00
41220;DHT22;26951;47.338;9.196;2022-07-10T02:08:41;14.60;59.90
41220;DHT22;26951;47.338;9.196;2022-07-10T02:11:25;14.60;59.90
41220;DHT22;26951;47.338;9.196;2022-07-10T02:14:10;14.60;60.10
41220;DHT22;26951;47.338;9.196;2022-07-10T02:16:54;14.50;59.80
41220;DHT22;26951;47.338;9.196;2022-07-10T02:19:39;14.50;59.40
41220;DHT22;26951;47.338;9.196;2022-07-10T02:22:23;14.50;59.50
41220;DHT22;26951;47.338;9.196;2022-07-10T02:25:08;14.50;60.00
41220;DHT22;26951;47.338;9.196;2022-07-10T02:27:52;14.50;59.80
41220;DHT22;26951;47.338;9.196;2022-07-10T02:30:36;14.50;59.80
41220;DHT22;26951;47.338;9.196;2022-07-10T02:33:21;14.40;61.50
41220;DHT22;26951;47.338;9.196;2022-07-10T02:36:05;14.30;61.20
41220;DHT22;26951;47.338;9.196;2022-07-10T02:38:49;14.30;61.50
41220;DHT22;26951;47.338;9.196;2022-07-10T02:41:34;14.40;61.60
41220;DHT22;26951;47.338;9.196;2022-07-10T02:44:19;14.40;61.80
41220;DHT22;26951;47.338;9.196;2022-07-10T02:47:03;14.40;63.60
41220;DHT22;26951;47.338;9.196;2022-07-10T02:49:47;14.40;62.10
41220;DHT22;26951;47.338;9.196;2022-07-10T02:52:31;14.40;61.10
41220;DHT22;26951;47.338;9.196;2022-07-10T02:55:16;14.40;61.00
41220;DHT22;26951;47.338;9.196;2022-07-10T02:58:00;14.50;60.80
41220;DHT22;26951;47.338;9.196;2022-07-10T03:00:44;14.50;61.10
41220;DHT22;26951;47.338;9.196;2022-07-10T03:03:28;14.50;60.80
41220;DHT22;26951;47.338;9.196;2022-07-10T03:06:13;14.50;61.40
41220;DHT22;26951;47.338;9.196;2022-07-10T03:08:57;14.40;60.80
41220;DHT22;26951;47.338;9.196;2022-07-10T03:11:41;14.40;61.70
41220;DHT22;26951;47.338;9.196;2022-07-10T03:14:26;14.40;61.40
41220;DHT22;26951;47.338;9.196;2022-07-10T03:17:11;14.40;61.40
41220;DHT22;26951;47.338;9.196;2022-07-10T03:19:55;14.40;61.90
41220;DHT22;26951;47.338;9.196;2022-07-10T03:22:39;14.40;61.60
41220;DHT22;26951;47.338;9.196;2022-07-10T03:25:23;14.40;62.60
41220;DHT22;26951;47.338;9.196;2022-07-10T03:28:08;14.40;62.90
41220;DHT22;26951;47.338;9.196;2022-07-10T03:30:52;14.40;63.40
41220;DHT22;26951;47.338;9.196;2022-07-10T03:33:36;14.40;63.10
41220;DHT22;26951;47.338;9.196;2022-07-10T03:36:20;14.40;63.20
41220;DHT22;26951;47.338;9.196;2022-07-10T03:39:05;14.50;63.90
41220;DHT22;26951;47.338;9.196;2022-07-10T03:41:49;14.50;65.20
41220;DHT22;26951;47.338;9.196;2022-07-10T03:44:33;14.60;65.90
41220;DHT22;26951;47.338;9.196;2022-07-10T03:47:17;14.60;66.30
41220;DHT22;26951;47.338;9.196;2022-07-10T03:50:01;14.60;65.90
41220;DHT22;26951;47.338;9.196;2022-07-10T03:52:47;14.70;65.60
41220;DHT22;26951;47.338;9.196;2022-07-10T03:55:32;14.70;65.60
41220;DHT22;26951;47.338;9.196;2022-07-10T03:58:16;14.70;65.10
41220;DHT22;26951;47.338;9.196;2022-07-10T04:01:00;14.70;65.40
41220;DHT22;26951;47.338;9.196;2022-07-10T04:03:45;14.80;66.10
41220;DHT22;26951;47.338;9.196;2022-07-10T04:06:29;14.80;66.30
41220;DHT22;26951;47.338;9.196;2022-07-10T04:09:13;14.80;66.10
41220;DHT22;26951;47.338;9.196;2022-07-10T04:11:57;14.80;66.40
41220;DHT22;26951;47.338;9.196;2022-07-10T04:14:41;14.80;65.90
41220;DHT22;26951;47.338;9.196;2022-07-10T04:17:26;14.80;65.50
41220;DHT22;26951;47.338;9.196;2022-07-10T04:20:10;14.90;65.60
41220;DHT22;26951;47.338;9.196;2022-07-10T04:22:56;14.90;66.00
41220;DHT22;26951;47.338;9.196;2022-07-10T04:25:40;14.90;65.40
41220;DHT22;26951;47.338;9.196;2022-07-10T04:28:24;15.00;65.60
41220;DHT22;26951;47.338;9.196;2022-07-10T04:31:08;15.00;66.20
41220;DHT22;26951;47.338;9.196;2022-07-10T04:33:52;15.00;66.30
41220;DHT22;26951;47.338;9.196;2022-07-10T04:36:37;15.00;66.30
41220;DHT22;26951;47.338;9.196;2022-07-10T04:39:21;15.00;66.40
41220;DHT22;26951;47.338;9.196;2022-07-10T04:42:06;15.10;66.40
41220;DHT22;26951;47.338;9.196;2022-07-10T04:44:51;15.00;66.60
41220;DHT22;26951;47.338;9.196;2022-07-10T04:47:35;15.10;67.30
41220;DHT22;26951;47.338;9.196;2022-07-10T04:50:19;15.10;67.00
41220;DHT22;26951;47.338;9.196;2022-07-10T04:53:03;15.10;67.30
41220;DHT22;26951;47.338;9.196;2022-07-10T04:55:47;15.20;66.10
41220;DHT22;26951;47.338;9.196;2022-07-10T04:58:31;15.20;65.60
41220;DHT22;26951;47.338;9.196;2022-07-10T05:01:15;15.20;66.40
41220;DHT22;26951;47.338;9.196;2022-07-10T05:04:00;15.30;68.60
41220;DHT22;26951;47.338;9.196;2022-07-10T05:06:44;15.30;68.00
41220;DHT22;26951;47.338;9.196;2022-07-10T05:09:28;15.30;68.00
41220;DHT22;26951;47.338;9.196;2022-07-10T05:12:12;15.40;67.80
41220;DHT22;26951;47.338;9.196;2022-07-10T05:14:56;15.40;68.00
41220;DHT22;26951;47.338;9.196;2022-07-10T05:17:41;15.40;67.50
41220;DHT22;26951;47.338;9.196;2022-07-10T05:20:25;15.40;67.30
41220;DHT22;26951;47.338;9.196;2022-07-10T05:23:10;15.50;67.30
41220;DHT22;26951;47.338;9.196;2022-07-10T05:25:55;15.50;67.10
41220;DHT22;26951;47.338;9.196;2022-07-10T05:28:39;15.50;67.50
41220;DHT22;26951;47.338;9.196;2022-07-10T05:31:23;15.50;66.60
41220;DHT22;26951;47.338;9.196;2022-07-10T05:34:07;15.60;65.80
41220;DHT22;26951;47.338;9.196;2022-07-10T05:36:51;15.60;66.00
41220;DHT22;26951;47.338;9.196;2022-07-10T05:39:35;15.60;65.80
41220;DHT22;26951;47.338;9.196;2022-07-10T05:42:20;15.60;66.90
41220;DHT22;26951;47.338;9.196;2022-07-10T05:45:05;15.70;66.70
41220;DHT22;26951;47.338;9.196;2022-07-10T05:47:50;15.70;67.10
41220;DHT22;26951;47.338;9.196;2022-07-10T05:50:34;15.70;66.20
41220;DHT22;26951;47.338;9.196;2022-07-10T05:53:18;15.80;66.30
41220;DHT22;26951;47.338;9.196;2022-07-10T05:56:03;15.80;66.00
41220;DHT22;26951;47.338;9.196;2022-07-10T05:58:47;15.80;65.10
41220;DHT22;26951;47.338;9.196;2022-07-10T06:01:34;15.80;64.80
41220;DHT22;26951;47.338;9.196;2022-07-10T06:04:18;15.90;64.70
41220;DHT22;26951;47.338;9.196;2022-07-10T06:07:02;15.90;64.50
41220;DHT22;26951;47.338;9.196;2022-07-10T06:09:46;16.00;64.20
41220;DHT22;26951;47.338;9.196;2022-07-10T06:12:31;16.00;64.40
41220;DHT22;26951;47.338;9.196;2022-07-10T06:15:15;16.10;64.40
41220;DHT22;26951;47.338;9.196;2022-07-10T06:17:59;16.10;64.70
41220;DHT22;26951;47.338;9.196;2022-07-10T06:20:43;16.20;64.80
41220;DHT22;26951;47.338;9.196;2022-07-10T06:23:28;16.20;63.80
41220;DHT22;26951;47.338;9.196;2022-07-10T06:26:12;16.20;63.10
41220;DHT22;26951;47.338;9.196;2022-07-10T06:28:56;16.20;63.10
41220;DHT22;26951;47.338;9.196;2022-07-10T06:31:40;16.30;63.30
41220;DHT22;26951;47.338;9.196;2022-07-10T06:34:24;16.30;63.30
41220;DHT22;26951;47.338;9.196;2022-07-10T06:37:09;16.30;63.10
41220;DHT22;26951;47.338;9.196;2022-07-10T06:39:53;16.40;63.70
41220;DHT22;26951;47.338;9.196;2022-07-10T06:42:37;16.50;63.60
41220;DHT22;26951;47.338;9.196;2022-07-10T06:45:22;16.60;63.50
41220;DHT22;26951;47.338;9.196;2022-07-10T06:48:06;16.70;63.70
41220;DHT22;26951;47.338;9.196;2022-07-10T06:50:50;16.70;63.30
41220;DHT22;26951;47.338;9.196;2022-07-10T06:53:34;16.80;64.30
41220;DHT22;26951;47.338;9.196;2022-07-10T06:56:19;16.90;63.60
41220;DHT22;26951;47.338;9.196;2022-07-10T06:59:03;17.10;64.60
41220;DHT22;26951;47.338;9.196;2022-07-10T07:01:47;17.30;62.50
41220;DHT22;26951;47.338;9.196;2022-07-10T07:04:32;17.50;64.50
41220;DHT22;26951;47.338;9.196;2022-07-10T07:07:16;17.80;65.20
41220;DHT22;26951;47.338;9.196;2022-07-10T07:10:01;18.10;62.40
41220;DHT22;26951;47.338;9.196;2022-07-10T07:12:46;18.40;60.80
41220;DHT22;26951;47.338;9.196;2022-07-10T07:15:30;18.70;60.70
41220;DHT22;26951;47.338;9.196;2022-07-10T07:18:15;19.00;57.10
41220;DHT22;26951;47.338;9.196;2022-07-10T07:21:00;19.20;54.60
41220;DHT22;26951;47.338;9.196;2022-07-10T07:24:03;19.40;53.60
41220;DHT22;26951;47.338;9.196;2022-07-10T07:26:49;19.50;53.90
41220;DHT22;26951;47.338;9.196;2022-07-10T07:29:33;19.60;54.20
41220;DHT22;26951;47.338;9.196;2022-07-10T07:32:17;19.70;53.80
41220;DHT22;26951;47.338;9.196;2022-07-10T07:35:02;19.70;52.50
41220;DHT22;26951;47.338;9.196;2022-07-10T07:37:48;19.90;56.30
41220;DHT22;26951;47.338;9.196;2022-07-10T07:40:33;20.10;54.30
41220;DHT22;26951;47.338;9.196;2022-07-10T07:43:17;20.30;54.20
41220;DHT22;26951;47.338;9.196;2022-07-10T07:46:01;20.50;55.20
41220;DHT22;26951;47.338;9.196;2022-07-10T07:48:45;20.60;52.60
41220;DHT22;26951;47.338;9.196;2022-07-10T07:51:29;20.80;52.90
41220;DHT22;26951;47.338;9.196;2022-07-10T07:54:13;21.00;52.30
41220;DHT22;26951;47.338;9.196;2022-07-10T07:56:59;21.10;51.90
41220;DHT22;26951;47.338;9.196;2022-07-10T07:59:43;21.20;51.00
41220;DHT22;26951;47.338;9.196;2022-07-10T08:02:27;21.20;51.00
41220;DHT22;26951;47.338;9.196;2022-07-10T08:05:11;21.20;52.20
41220;DHT22;26951;47.338;9.196;2022-07-10T08:07:57;21.30;52.70
41220;DHT22;26951;47.338;9.196;2022-07-10T08:10:42;21.30;52.20
41220;DHT22;26951;47.338;9.196;2022-07-10T08:13:27;21.30;51.10
41220;DHT22;26951;47.338;9.196;2022-07-10T08:16:11;21.30;51.60
41220;DHT22;26951;47.338;9.196;2022-07-10T08:18:55;21.30;50.80
41220;DHT22;26951;47.338;9.196;2022-07-10T08:21:39;21.40;51.10
41220;DHT22;26951;47.338;9.196;2022-07-10T08:24:23;21.50;53.00
41220;DHT22;26951;47.338;9.196;2022-07-10T08:27:08;21.50;52.00
41220;DHT22;26951;47.338;9.196;2022-07-10T08:29:52;21.60;54.10
41220;DHT22;26951;47.338;9.196;2022-07-10T08:32:40;21.70;51.60
41220;DHT22;26951;47.338;9.196;2022-07-10T08:35:24;21.70;51.70
41220;DHT22;26951;47.338;9.196;2022-07-10T08:38:08;21.70;48.80
41220;DHT22;26951;47.338;9.196;2022-07-10T08:40:54;21.60;50.00
41220;DHT22;26951;47.338;9.196;2022-07-10T08:43:41;21.50;49.70
41220;DHT22;26951;47.338;9.196;2022-07-10T08:46:27;21.50;50.20
41220;DHT22;26951;47.338;9.196;2022-07-10T08:49:12;21.60;50.40
41220;DHT22;26951;47.338;9.196;2022-07-10T08:54:46;21.60;49.80
41220;DHT22;26951;47.338;9.196;2022-07-10T08:57:31;21.70;50.20
41220;DHT22;26951;47.338;9.196;2022-07-10T09:00:16;21.80;52.30
41220;DHT22;26951;47.338;9.196;2022-07-10T09:03:00;21.80;50.50
41220;DHT22;26951;47.338;9.196;2022-07-10T09:05:45;21.80;49.60
41220;DHT22;26951;47.338;9.196;2022-07-10T09:08:30;21.80;48.60
41220;DHT22;26951;47.338;9.196;2022-07-10T09:11:18;21.70;49.30
41220;DHT22;26951;47.338;9.196;2022-07-10T09:14:04;21.60;48.50
41220;DHT22;26951;47.338;9.196;2022-07-10T09:16:51;21.30;48.40
41220;DHT22;26951;47.338;9.196;2022-07-10T09:19:35;21.20;49.00
41220;DHT22;26951;47.338;9.196;2022-07-10T09:22:21;21.10;49.40
41220;DHT22;26951;47.338;9.196;2022-07-10T09:25:12;21.00;50.00
41220;DHT22;26951;47.338;9.196;2022-07-10T09:27:56;21.00;51.00
41220;DHT22;26951;47.338;9.196;2022-07-10T09:30:44;21.10;54.00
41220;DHT22;26951;47.338;9.196;2022-07-10T09:33:30;21.20;54.30
41220;DHT22;26951;47.338;9.196;2022-07-10T09:36:15;21.40;55.40
41220;DHT22;26951;47.338;9.196;2022-07-10T09:39:00;21.70;57.40
41220;DHT22;26951;47.338;9.196;2022-07-10T09:41:44;21.90;53.80
41220;DHT22;26951;47.338;9.196;2022-07-10T09:44:29;22.00;52.30
41220;DHT22;26951;47.338;9.196;2022-07-10T09:47:22;22.10;51.70
41220;DHT22;26951;47.338;9.196;2022-07-10T09:50:22;22.10;49.00
41220;DHT22;26951;47.338;9.196;2022-07-10T09:53:08;22.00;48.40
41220;DHT22;26951;47.338;9.196;2022-07-10T09:55:56;21.90;48.40
41220;DHT22;26951;47.338;9.196;2022-07-10T09:58:45;21.90;49.00
41220;DHT22;26951;47.338;9.196;2022-07-10T10:01:29;21.90;52.30
41220;DHT22;26951;47.338;9.196;2022-07-10T10:04:15;22.00;51.00
41220;DHT22;26951;47.338;9.196;2022-07-10T10:07:01;22.10;52.80
41220;DHT22;26951;47.338;9.196;2022-07-10T10:09:53;22.00;49.80
41220;DHT22;26951;47.338;9.196;2022-07-10T10:12:48;22.00;50.80
41220;DHT22;26951;47.338;9.196;2022-07-10T10:15:35;22.20;50.00
41220;DHT22;26951;47.338;9.196;2022-07-10T10:18:24;22.20;49.30
41220;DHT22;26951;47.338;9.196;2022-07-10T10:21:08;22.20;50.20
41220;DHT22;26951;47.338;9.196;2022-07-10T10:23:54;22.20;47.30
41220;DHT22;26951;47.338;9.196;2022-07-10T10:26:39;22.10;48.50
41220;DHT22;26951;47.338;9.196;2022-07-10T10:29:24;21.90;48.90
41220;DHT22;26951;47.338;9.196;2022-07-10T10:32:09;21.90;48.70
41220;DHT22;26951;47.338;9.196;2022-07-10T10:34:53;21.80;49.20
41220;DHT22;26951;47.338;9.196;2022-07-10T10:37:41;21.70;49.00
41220;DHT22;26951;47.338;9.196;2022-07-10T10:40:32;21.60;50.20
41220;DHT22;26951;47.338;9.196;2022-07-10T10:43:22;21.60;49.20
41220;DHT22;26951;47.338;9.196;2022-07-10T10:46:25;21.70;51.20
41220;DHT22;26951;47.338;9.196;2022-07-10T10:49:09;21.90;52.60
41220;DHT22;26951;47.338;9.196;2022-07-10T10:52:11;22.10;52.00
41220;DHT22;26951;47.338;9.196;2022-07-10T10:55:00;22.30;49.30
41220;DHT22;26951;47.338;9.196;2022-07-10T10:57:46;22.40;52.20
41220;DHT22;26951;47.338;9.196;2022-07-10T11:00:33;22.40;52.20
41220;DHT22;26951;47.338;9.196;2022-07-10T11:03:22;22.50;52.30
41220;DHT22;26951;47.338;9.196;2022-07-10T11:06:12;22.60;48.40
41220;DHT22;26951;47.338;9.196;2022-07-10T11:12:09;22.50;49.90
41220;DHT22;26951;47.338;9.196;2022-07-10T11:14:54;22.60;49.20
41220;DHT22;26951;47.338;9.196;2022-07-10T11:17:39;22.70;48.60
41220;DHT22;26951;47.338;9.196;2022-07-10T11:20:23;22.80;48.00
41220;DHT22;26951;47.338;9.196;2022-07-10T11:28:56;22.60;44.00
41220;DHT22;26951;47.338;9.196;2022-07-10T11:31:54;22.20;44.60
41220;DHT22;26951;47.338;9.196;2022-07-10T11:34:39;22.00;47.80
41220;DHT22;26951;47.338;9.196;2022-07-10T11:37:23;21.90;47.20
41220;DHT22;26951;47.338;9.196;2022-07-10T11:40:12;21.90;49.30
41220;DHT22;26951;47.338;9.196;2022-07-10T11:42:57;21.90;47.40
41220;DHT22;26951;47.338;9.196;2022-07-10T11:45:44;21.80;46.40
41220;DHT22;26951;47.338;9.196;2022-07-10T11:48:28;21.90;50.70
41220;DHT22;26951;47.338;9.196;2022-07-10T11:51:33;22.00;48.10
41220;DHT22;26951;47.338;9.196;2022-07-10T11:54:18;22.20;46.40
41220;DHT22;26951;47.338;9.196;2022-07-10T11:57:06;22.20;46.30
41220;DHT22;26951;47.338;9.196;2022-07-10T11:59:53;22.30;45.60
41220;DHT22;26951;47.338;9.196;2022-07-10T12:02:37;22.30;45.20
41220;DHT22;26951;47.338;9.196;2022-07-10T12:05:32;22.20;46.70
41220;DHT22;26951;47.338;9.196;2022-07-10T12:08:16;22.00;47.10
41220;DHT22;26951;47.338;9.196;2022-07-10T12:11:11;21.90;49.30
41220;DHT22;26951;47.338;9.196;2022-07-10T12:14:18;21.80;48.00
41220;DHT22;26951;47.338;9.196;2022-07-10T12:17:10;21.70;46.80
41220;DHT22;26951;47.338;9.196;2022-07-10T12:19:56;21.60;47.20
41220;DHT22;26951;47.338;9.196;2022-07-10T12:22:40;21.60;47.30
41220;DHT22;26951;47.338;9.196;2022-07-10T12:25:25;21.70;50.50
41220;DHT22;26951;47.338;9.196;2022-07-10T12:28:10;21.80;51.20
41220;DHT22;26951;47.338;9.196;2022-07-10T12:30:56;22.00;46.80
41220;DHT22;26951;47.338;9.196;2022-07-10T12:33:40;22.10;47.70
41220;DHT22;26951;47.338;9.196;2022-07-10T12:36:25;22.20;47.20
41220;DHT22;26951;47.338;9.196;2022-07-10T12:39:09;22.20;46.70
41220;DHT22;26951;47.338;9.196;2022-07-10T12:41:58;22.30;46.70
41220;DHT22;26951;47.338;9.196;2022-07-10T12:44:45;22.40;46.70
41220;DHT22;26951;47.338;9.196;2022-07-10T12:47:43;22.60;47.60
41220;DHT22;26951;47.338;9.196;2022-07-10T12:50:28;22.70;48.50
41220;DHT22;26951;47.338;9.196;2022-07-10T12:53:12;22.80;47.80
41220;DHT22;26951;47.338;9.196;2022-07-10T12:55:58;22.80;44.50
41220;DHT22;26951;47.338;9.196;2022-07-10T12:58:46;22.70;43.60
41220;DHT22;26951;47.338;9.196;2022-07-10T13:01:56;22.60;44.70
41220;DHT22;26951;47.338;9.196;2022-07-10T13:04:51;22.60;47.80
41220;DHT22;26951;47.338;9.196;2022-07-10T13:07:36;22.60;46.50
41220;DHT22;26951;47.338;9.196;2022-07-10T13:10:21;22.70;46.00
41220;DHT22;26951;47.338;9.196;2022-07-10T13:13:05;22.80;46.10
41220;DHT22;26951;47.338;9.196;2022-07-10T13:15:50;22.80;43.10
41220;DHT22;26951;47.338;9.196;2022-07-10T13:18:36;22.80;44.60
41220;DHT22;26951;47.338;9.196;2022-07-10T13:21:20;22.70;44.30
41220;DHT22;26951;47.338;9.196;2022-07-10T13:24:05;22.70;42.90
41220;DHT22;26951;47.338;9.196;2022-07-10T13:26:49;22.50;43.60
41220;DHT22;26951;47.338;9.196;2022-07-10T13:29:33;22.40;42.80
41220;DHT22;26951;47.338;9.196;2022-07-10T13:32:17;22.40;42.70
41220;DHT22;26951;47.338;9.196;2022-07-10T13:35:02;22.40;45.10
41220;DHT22;26951;47.338;9.196;2022-07-10T13:37:46;22.40;43.90
41220;DHT22;26951;47.338;9.196;2022-07-10T13:40:32;22.40;44.10
41220;DHT22;26951;47.338;9.196;2022-07-10T13:43:16;22.50;42.60
41220;DHT22;26951;47.338;9.196;2022-07-10T13:46:01;22.50;42.40
41220;DHT22;26951;47.338;9.196;2022-07-10T13:48:46;22.40;43.00
41220;DHT22;26951;47.338;9.196;2022-07-10T13:51:30;22.50;45.60
41220;DHT22;26951;47.338;9.196;2022-07-10T13:54:14;22.50;42.50
41220;DHT22;26951;47.338;9.196;2022-07-10T13:56:59;22.50;41.50
41220;DHT22;26951;47.338;9.196;2022-07-10T13:59:43;22.50;44.40
41220;DHT22;26951;47.338;9.196;2022-07-10T14:02:27;22.50;44.30
41220;DHT22;26951;47.338;9.196;2022-07-10T14:05:11;22.40;43.70
41220;DHT22;26951;47.338;9.196;2022-07-10T14:07:55;22.40;42.20
41220;DHT22;26951;47.338;9.196;2022-07-10T14:10:39;22.40;45.40
41220;DHT22;26951;47.338;9.196;2022-07-10T14:13:24;22.50;44.60
41220;DHT22;26951;47.338;9.196;2022-07-10T14:16:08;22.70;45.10
41220;DHT22;26951;47.338;9.196;2022-07-10T14:18:52;22.90;44.10
41220;DHT22;26951;47.338;9.196;2022-07-10T14:21:40;23.10;46.30
41220;DHT22;26951;47.338;9.196;2022-07-10T14:24:24;23.30;43.70
41220;DHT22;26951;47.338;9.196;2022-07-10T14:27:08;23.20;40.10
41220;DHT22;26951;47.338;9.196;2022-07-10T14:29:52;23.00;38.00
41220;DHT22;26951;47.338;9.196;2022-07-10T14:32:37;22.90;41.50
41220;DHT22;26951;47.338;9.196;2022-07-10T14:35:21;22.90;39.60
41220;DHT22;26951;47.338;9.196;2022-07-10T14:38:05;22.70;39.30
41220;DHT22;26951;47.338;9.196;2022-07-10T14:40:49;22.60;40.70
41220;DHT22;26951;47.338;9.196;2022-07-10T14:43:36;22.60;42.70
41220;DHT22;26951;47.338;9.196;2022-07-10T14:46:20;22.70;41.60
41220;DHT22;26951;47.338;9.196;2022-07-10T14:49:04;22.80;41.60
41220;DHT22;26951;47.338;9.196;2022-07-10T14:51:49;22.90;39.00
41220;DHT22;26951;47.338;9.196;2022-07-10T14:54:33;22.90;40.10
41220;DHT22;26951;47.338;9.196;2022-07-10T14:57:17;23.00;40.30
41220;DHT22;26951;47.338;9.196;2022-07-10T15:00:02;23.00;39.30
41220;DHT22;26951;47.338;9.196;2022-07-10T15:02:47;23.00;40.10
41220;DHT22;26951;47.338;9.196;2022-07-10T15:05:31;23.10;40.10
41220;DHT22;26951;47.338;9.196;2022-07-10T15:08:21;23.10;39.40
41220;DHT22;26951;47.338;9.196;2022-07-10T15:11:05;23.10;39.40
41220;DHT22;26951;47.338;9.196;2022-07-10T15:13:51;23.10;40.30
41220;DHT22;26951;47.338;9.196;2022-07-10T15:16:42;23.10;40.50
41220;DHT22;26951;47.338;9.196;2022-07-10T15:19:27;23.20;40.80
41220;DHT22;26951;47.338;9.196;2022-07-10T15:22:11;23.20;41.10
41220;DHT22;26951;47.338;9.196;2022-07-10T15:24:55;23.20;42.00
41220;DHT22;26951;47.338;9.196;2022-07-10T15:27:39;23.30;40.80
41220;DHT22;26951;47.338;9.196;2022-07-10T15:30:23;23.30;40.80
41220;DHT22;26951;47.338;9.196;2022-07-10T15:33:07;23.20;41.40
41220;DHT22;26951;47.338;9.196;2022-07-10T15:35:52;23.20;41.50
41220;DHT22;26951;47.338;9.196;2022-07-10T15:38:36;23.20;39.50
41220;DHT22;26951;47.338;9.196;2022-07-10T15:41:20;23.10;38.40
41220;DHT22;26951;47.338;9.196;2022-07-10T15:44:04;23.10;39.40
41220;DHT22;26951;47.338;9.196;2022-07-10T15:46:48;23.00;39.30
41220;DHT22;26951;47.338;9.196;2022-07-10T15:49:32;23.00;41.80
41220;DHT22;26951;47.338;9.196;2022-07-10T15:52:16;23.00;43.20
41220;DHT22;26951;47.338;9.196;2022-07-10T15:55:01;23.10;41.80
41220;DHT22;26951;47.338;9.196;2022-07-10T15:57:45;23.20;40.20
41220;DHT22;26951;47.338;9.196;2022-07-10T16:00:29;23.30;41.80
41220;DHT22;26951;47.338;9.196;2022-07-10T16:03:13;23.40;41.90
41220;DHT22;26951;47.338;9.196;2022-07-10T16:05:57;23.30;40.30
41220;DHT22;26951;47.338;9.196;2022-07-10T16:08:41;23.40;41.50
41220;DHT22;26951;47.338;9.196;2022-07-10T16:11:25;23.40;39.30
41220;DHT22;26951;47.338;9.196;2022-07-10T16:14:10;23.30;39.80
41220;DHT22;26951;47.338;9.196;2022-07-10T16:16:55;23.30;40.80
41220;DHT22;26951;47.338;9.196;2022-07-10T16:19:40;23.40;40.00
41220;DHT22;26951;47.338;9.196;2022-07-10T16:22:25;23.30;39.60
41220;DHT22;26951;47.338;9.196;2022-07-10T16:25:09;23.20;40.30
41220;DHT22;26951;47.338;9.196;2022-07-10T16:28:12;23.10;39.70
41220;DHT22;26951;47.338;9.196;2022-07-10T16:30:56;23.00;39.90
41220;DHT22;26951;47.338;9.196;2022-07-10T16:33:41;22.90;39.80
41220;DHT22;26951;47.338;9.196;2022-07-10T16:36:25;22.80;40.30
41220;DHT22;26951;47.338;9.196;2022-07-10T16:39:10;22.70;40.90
41220;DHT22;26951;47.338;9.196;2022-07-10T16:41:54;22.70;41.10
41220;DHT22;26951;47.338;9.196;2022-07-10T16:44:38;22.70;41.30
41220;DHT22;26951;47.338;9.196;2022-07-10T16:47:22;22.70;40.80
41220;DHT22;26951;47.338;9.196;2022-07-10T16:50:08;22.60;41.70
41220;DHT22;26951;47.338;9.196;2022-07-10T16:52:52;22.50;40.80
41220;DHT22;26951;47.338;9.196;2022-07-10T16:55:40;22.40;40.50
41220;DHT22;26951;47.338;9.196;2022-07-10T16:58:25;22.20;40.60
41220;DHT22;26951;47.338;9.196;2022-07-10T17:01:09;22.20;40.50
41220;DHT22;26951;47.338;9.196;2022-07-10T17:03:53;22.10;39.90
41220;DHT22;26951;47.338;9.196;2022-07-10T17:06:37;22.00;40.90
41220;DHT22;26951;47.338;9.196;2022-07-10T17:09:21;21.80;40.30
41220;DHT22;26951;47.338;9.196;2022-07-10T17:12:06;21.70;41.00
41220;DHT22;26951;47.338;9.196;2022-07-10T17:14:50;21.60;41.60
41220;DHT22;26951;47.338;9.196;2022-07-10T17:17:34;21.50;41.50
41220;DHT22;26951;47.338;9.196;2022-07-10T17:20:20;21.40;41.00
41220;DHT22;26951;47.338;9.196;2022-07-10T17:23:05;21.30;41.60
41220;DHT22;26951;47.338;9.196;2022-07-10T17:25:49;21.30;42.30
41220;DHT22;26951;47.338;9.196;2022-07-10T17:28:33;21.20;42.90
41220;DHT22;26951;47.338;9.196;2022-07-10T17:31:17;21.20;42.20
41220;DHT22;26951;47.338;9.196;2022-07-10T17:34:02;21.10;41.50
41220;DHT22;26951;47.338;9.196;2022-07-10T17:36:46;21.00;42.10